sensor_id;sensor_type;location;lat;lon;timestamp;pressure;altitude;pressure_sealevel;temperature;humidity
64053;BME280;50299;49.524;8.536;2023-03-03T00:01:14;100846.91;;;-2.11;89.40
64053;BME280;50299;49.524;8.536;2023-03-03T00:03:41;100838.88;;;-1.59;99.62
64053;BME280;50299;49.524;8.536;2023-03-03T00:06:11;100851.72;;;-1.42;96.90
64053;BME280;50299;49.524;8.536;2023-03-03T00:08:39;100847.38;;;-1.67;92.38
64053;BME280;50299;49.524;8.536;2023-03-03T00:11:06;100844.13;;;-2.99;87.14
64053;BME280;50299;49.524;8.536;2023-03-03T00:13:43;100846.44;;;-2.31;95.06
64053;BME280;50299;49.524;8.536;2023-03-03T00:16:21;100848.00;;;-2.00;97.74
64053;BME280;50299;49.524;8.536;2023-03-03T00:18:49;100851.19;;;-2.68;89.49
64053;BME280;50299;49.524;8.536;2023-03-03T00:21:30;100842.06;;;-2.32;93.76
64053;BME280;50299;49.524;8.536;2023-03-03T00:24:10;100838.44;;;-1.91;95.81
64053;BME280;50299;49.524;8.536;2023-03-03T00:26:44;100850.47;;;-1.75;95.92
64053;BME280;50299;49.524;8.536;2023-03-03T00:29:27;100848.94;;;-1.83;93.86
64053;BME280;50299;49.524;8.536;2023-03-03T00:31:54;100859.28;;;-2.15;92.05
64053;BME280;50299;49.524;8.536;2023-03-03T00:34:25;100860.31;;;-2.81;89.03
64053;BME280;50299;49.524;8.536;2023-03-03T00:36:56;100858.16;;;-2.91;92.39
64053;BME280;50299;49.524;8.536;2023-03-03T00:39:36;100858.25;;;-2.14;100.00
64053;BME280;50299;49.524;8.536;2023-03-03T00:42:16;100863.03;;;-2.28;94.51
64053;BME280;50299;49.524;8.536;2023-03-03T00:44:56;100863.16;;;-2.34;93.28
64053;BME280;50299;49.524;8.536;2023-03-03T00:47:29;100858.06;;;-2.54;93.13
64053;BME280;50299;49.524;8.536;2023-03-03T00:52:35;100866.47;;;-3.04;92.15
64053;BME280;50299;49.524;8.536;2023-03-03T00:55:02;100865.78;;;-2.69;97.00
64053;BME280;50299;49.524;8.536;2023-03-03T00:57:29;100863.25;;;-3.68;89.44
64053;BME280;50299;49.524;8.536;2023-03-03T00:59:56;100859.72;;;-3.87;92.48
64053;BME280;50299;49.524;8.536;2023-03-03T01:02:22;100863.25;;;-2.83;100.00
64053;BME280;50299;49.524;8.536;2023-03-03T01:04:51;100871.25;;;-2.46;99.14
64053;BME280;50299;49.524;8.536;2023-03-03T01:07:18;100867.78;;;-2.65;94.98
64053;BME280;50299;49.524;8.536;2023-03-03T01:09:44;100865.63;;;-2.33;97.81
64053;BME280;50299;49.524;8.536;2023-03-03T01:12:11;100870.81;;;-2.19;97.67
64053;BME280;50299;49.524;8.536;2023-03-03T01:14:39;100868.09;;;-2.31;97.12
64053;BME280;50299;49.524;8.536;2023-03-03T01:17:05;100870.19;;;-3.17;89.39
64053;BME280;50299;49.524;8.536;2023-03-03T01:19:32;100873.88;;;-3.30;89.45
64053;BME280;50299;49.524;8.536;2023-03-03T01:21:58;100875.59;;;-3.17;92.14
64053;BME280;50299;49.524;8.536;2023-03-03T01:24:25;100866.22;;;-2.31;100.00
64053;BME280;50299;49.524;8.536;2023-03-03T01:26:51;100859.50;;;-1.46;100.00
64053;BME280;50299;49.524;8.536;2023-03-03T01:29:17;100873.06;;;-2.16;97.09
64053;BME280;50299;49.524;8.536;2023-03-03T01:31:44;100865.47;;;-2.91;89.53
64053;BME280;50299;49.524;8.536;2023-03-03T01:34:10;100869.25;;;-3.11;90.59
64053;BME280;50299;49.524;8.536;2023-03-03T01:36:37;100868.78;;;-3.38;91.20
64053;BME280;50299;49.524;8.536;2023-03-03T01:39:03;100874.13;;;-4.18;88.12
64053;BME280;50299;49.524;8.536;2023-03-03T01:41:30;100872.66;;;-4.45;89.59
64053;BME280;50299;49.524;8.536;2023-03-03T01:43:59;100869.41;;;-4.54;91.28
64053;BME280;50299;49.524;8.536;2023-03-03T01:47:20;100871.97;;;-4.34;96.21
64053;BME280;50299;49.524;8.536;2023-03-03T01:49:25;100856.38;;;-4.89;96.07
64053;BME280;50299;49.524;8.536;2023-03-03T01:52:02;100846.75;;;-3.78;99.25
64053;BME280;50299;49.524;8.536;2023-03-03T01:54:40;100853.19;;;-3.24;100.00
64053;BME280;50299;49.524;8.536;2023-03-03T01:57:12;100852.63;;;-3.44;94.91
64053;BME280;50299;49.524;8.536;2023-03-03T01:59:45;100852.50;;;-2.89;99.58
64053;BME280;50299;49.524;8.536;2023-03-03T02:02:14;100863.41;;;-2.24;100.00
64053;BME280;50299;49.524;8.536;2023-03-03T02:04:41;100852.19;;;-2.81;94.44
64053;BME280;50299;49.524;8.536;2023-03-03T02:07:09;100847.06;;;-2.17;100.00
64053;BME280;50299;49.524;8.536;2023-03-03T02:09:52;100841.72;;;-1.65;100.00
64053;BME280;50299;49.524;8.536;2023-03-03T02:12:25;100844.69;;;-1.67;100.00
64053;BME280;50299;49.524;8.536;2023-03-03T02:14:52;100844.56;;;-1.84;95.86
64053;BME280;50299;49.524;8.536;2023-03-03T02:17:18;100846.44;;;-2.43;91.18
64053;BME280;50299;49.524;8.536;2023-03-03T02:19:57;100840.75;;;-3.43;87.51
64053;BME280;50299;49.524;8.536;2023-03-03T02:22:46;100844.03;;;-2.63;97.97
64053;BME280;50299;49.524;8.536;2023-03-03T02:25:21;100841.22;;;-1.39;100.00
64053;BME280;50299;49.524;8.536;2023-03-03T02:27:52;100846.91;;;-1.64;100.00
64053;BME280;50299;49.524;8.536;2023-03-03T02:30:20;100852.88;;;-1.38;100.00
64053;BME280;50299;49.524;8.536;2023-03-03T02:32:48;100854.13;;;-1.81;96.56
64053;BME280;50299;49.524;8.536;2023-03-03T02:35:26;100848.16;;;-1.31;100.00
64053;BME280;50299;49.524;8.536;2023-03-03T02:37:56;100848.75;;;-1.41;98.42
64053;BME280;50299;49.524;8.536;2023-03-03T02:40:27;100855.88;;;-1.75;96.61
64053;BME280;50299;49.524;8.536;2023-03-03T02:42:57;100852.88;;;-2.44;90.02
64053;BME280;50299;49.524;8.536;2023-03-03T02:45:24;100851.59;;;-2.41;94.94
64053;BME280;50299;49.524;8.536;2023-03-03T02:47:51;100851.66;;;-2.06;98.48
64053;BME280;50299;49.524;8.536;2023-03-03T02:50:17;100851.16;;;-1.80;99.86
64053;BME280;50299;49.524;8.536;2023-03-03T02:52:43;100846.34;;;-1.89;96.69
64053;BME280;50299;49.524;8.536;2023-03-03T02:55:10;100848.91;;;-2.30;92.73
64053;BME280;50299;49.524;8.536;2023-03-03T02:57:36;100846.69;;;-2.09;95.63
64053;BME280;50299;49.524;8.536;2023-03-03T03:00:34;100846.78;;;-2.39;93.73
64053;BME280;50299;49.524;8.536;2023-03-03T03:03:00;100847.84;;;-2.40;96.76
64053;BME280;50299;49.524;8.536;2023-03-03T03:05:27;100850.09;;;-1.67;100.00
64053;BME280;50299;49.524;8.536;2023-03-03T03:07:54;100845.16;;;-2.05;97.59
64053;BME280;50299;49.524;8.536;2023-03-03T03:10:20;100843.41;;;-3.07;89.05
64053;BME280;50299;49.524;8.536;2023-03-03T03:12:46;100857.41;;;-3.28;89.13
64053;BME280;50299;49.524;8.536;2023-03-03T03:15:13;100854.91;;;-2.81;95.56
64053;BME280;50299;49.524;8.536;2023-03-03T03:17:41;100854.00;;;-2.10;100.00
64053;BME280;50299;49.524;8.536;2023-03-03T03:20:07;100857.75;;;-2.11;100.00
64053;BME280;50299;49.524;8.536;2023-03-03T03:22:34;100851.84;;;-2.19;99.65
64053;BME280;50299;49.524;8.536;2023-03-03T03:25:00;100849.13;;;-2.31;97.06
64053;BME280;50299;49.524;8.536;2023-03-03T03:27:27;100860.34;;;-3.66;87.74
64053;BME280;50299;49.524;8.536;2023-03-03T03:29:53;100847.44;;;-4.58;88.75
64053;BME280;50299;49.524;8.536;2023-03-03T03:32:20;100858.06;;;-3.88;94.24
64053;BME280;50299;49.524;8.536;2023-03-03T03:34:46;100860.41;;;-3.73;94.81
64053;BME280;50299;49.524;8.536;2023-03-03T03:37:13;100855.34;;;-3.88;94.81
64053;BME280;50299;49.524;8.536;2023-03-03T03:39:40;100855.72;;;-4.03;94.70
64053;BME280;50299;49.524;8.536;2023-03-03T03:42:06;100849.50;;;-4.28;94.36
64053;BME280;50299;49.524;8.536;2023-03-03T03:44:33;100853.19;;;-4.22;94.74
64053;BME280;50299;49.524;8.536;2023-03-03T03:46:59;100850.50;;;-4.22;94.30
64053;BME280;50299;49.524;8.536;2023-03-03T03:49:26;100855.50;;;-4.01;95.61
64053;BME280;50299;49.524;8.536;2023-03-03T03:51:52;100861.69;;;-3.57;96.59
64053;BME280;50299;49.524;8.536;2023-03-03T03:54:18;100846.25;;;-3.50;94.77
64053;BME280;50299;49.524;8.536;2023-03-03T03:56:45;100865.28;;;-3.63;93.98
64053;BME280;50299;49.524;8.536;2023-03-03T03:59:11;100867.69;;;-3.55;95.65
64053;BME280;50299;49.524;8.536;2023-03-03T04:01:37;100865.28;;;-3.08;99.65
64053;BME280;50299;49.524;8.536;2023-03-03T04:04:04;100859.41;;;-2.75;100.00
64053;BME280;50299;49.524;8.536;2023-03-03T04:06:30;100875.13;;;-3.51;92.24
64053;BME280;50299;49.524;8.536;2023-03-03T04:08:57;100867.88;;;-3.02;97.23
64053;BME280;50299;49.524;8.536;2023-03-03T04:11:23;100866.50;;;-2.62;99.88
64053;BME280;50299;49.524;8.536;2023-03-03T04:13:50;100867.00;;;-2.54;98.25
64053;BME280;50299;49.524;8.536;2023-03-03T04:16:16;100863.28;;;-2.29;100.00
64053;BME280;50299;49.524;8.536;2023-03-03T04:18:42;100863.19;;;-1.75;100.00
64053;BME280;50299;49.524;8.536;2023-03-03T04:21:13;100863.66;;;-2.14;100.00
64053;BME280;50299;49.524;8.536;2023-03-03T04:23:40;100873.47;;;-3.15;91.38
64053;BME280;50299;49.524;8.536;2023-03-03T04:26:07;100872.50;;;-3.39;91.38
64053;BME280;50299;49.524;8.536;2023-03-03T04:28:34;100868.00;;;-3.45;95.61
64053;BME280;50299;49.524;8.536;2023-03-03T04:31:00;100866.69;;;-3.06;98.01
64053;BME280;50299;49.524;8.536;2023-03-03T04:33:27;100870.25;;;-2.93;98.70
64053;BME280;50299;49.524;8.536;2023-03-03T04:35:53;100862.66;;;-3.15;96.78
64053;BME280;50299;49.524;8.536;2023-03-03T04:38:20;100859.16;;;-3.70;92.02
64053;BME280;50299;49.524;8.536;2023-03-03T04:40:47;100866.78;;;-3.67;95.31
64053;BME280;50299;49.524;8.536;2023-03-03T04:43:13;100868.78;;;-3.38;97.54
64053;BME280;50299;49.524;8.536;2023-03-03T04:45:40;100873.34;;;-3.57;96.25
64053;BME280;50299;49.524;8.536;2023-03-03T04:48:06;100872.34;;;-3.81;94.98
64053;BME280;50299;49.524;8.536;2023-03-03T04:50:33;100874.75;;;-3.72;95.48
64053;BME280;50299;49.524;8.536;2023-03-03T04:53:00;100876.47;;;-3.78;96.83
64053;BME280;50299;49.524;8.536;2023-03-03T04:55:26;100873.72;;;-3.96;96.19
64053;BME280;50299;49.524;8.536;2023-03-03T04:57:52;100880.88;;;-3.84;97.57
64053;BME280;50299;49.524;8.536;2023-03-03T05:00:19;100880.00;;;-3.59;98.79
64053;BME280;50299;49.524;8.536;2023-03-03T05:02:46;100881.09;;;-2.93;100.00
64053;BME280;50299;49.524;8.536;2023-03-03T05:05:13;100886.22;;;-3.04;99.56
64053;BME280;50299;49.524;8.536;2023-03-03T05:07:39;100888.63;;;-2.95;99.28
64053;BME280;50299;49.524;8.536;2023-03-03T05:10:06;100893.28;;;-2.42;100.00
64053;BME280;50299;49.524;8.536;2023-03-03T05:12:33;100894.56;;;-2.45;99.27
64053;BME280;50299;49.524;8.536;2023-03-03T05:14:59;100900.25;;;-2.65;95.54
64053;BME280;50299;49.524;8.536;2023-03-03T05:17:26;100909.25;;;-2.53;97.33
64053;BME280;50299;49.524;8.536;2023-03-03T05:19:52;100903.94;;;-2.59;96.42
64053;BME280;50299;49.524;8.536;2023-03-03T05:22:19;100909.41;;;-2.78;95.85
64053;BME280;50299;49.524;8.536;2023-03-03T05:24:45;100909.66;;;-2.97;94.10
64053;BME280;50299;49.524;8.536;2023-03-03T05:27:15;100914.34;;;-3.41;91.78
64053;BME280;50299;49.524;8.536;2023-03-03T05:29:42;100919.44;;;-2.96;96.86
64053;BME280;50299;49.524;8.536;2023-03-03T05:32:08;100913.34;;;-2.92;96.01
64053;BME280;50299;49.524;8.536;2023-03-03T05:34:35;100923.59;;;-3.12;96.14
64053;BME280;50299;49.524;8.536;2023-03-03T05:37:01;100913.41;;;-2.98;97.06
64053;BME280;50299;49.524;8.536;2023-03-03T05:39:28;100915.81;;;-2.90;97.25
64053;BME280;50299;49.524;8.536;2023-03-03T05:41:55;100918.81;;;-2.80;98.00
64053;BME280;50299;49.524;8.536;2023-03-03T05:44:22;100934.47;;;-2.40;100.00
64053;BME280;50299;49.524;8.536;2023-03-03T05:46:48;100933.25;;;-2.56;96.98
64053;BME280;50299;49.524;8.536;2023-03-03T05:49:14;100934.63;;;-2.65;95.21
64053;BME280;50299;49.524;8.536;2023-03-03T05:51:41;100938.44;;;-2.55;98.54
64053;BME280;50299;49.524;8.536;2023-03-03T05:54:07;100943.41;;;-2.10;100.00
64053;BME280;50299;49.524;8.536;2023-03-03T05:56:34;100936.13;;;-1.74;100.00
64053;BME280;50299;49.524;8.536;2023-03-03T05:59:03;100939.78;;;-1.80;100.00
64053;BME280;50299;49.524;8.536;2023-03-03T06:01:29;100929.03;;;-2.10;97.15
64053;BME280;50299;49.524;8.536;2023-03-03T06:03:56;100937.03;;;-2.04;98.75
64053;BME280;50299;49.524;8.536;2023-03-03T06:06:22;100934.72;;;-1.53;100.00
64053;BME280;50299;49.524;8.536;2023-03-03T06:08:48;100935.13;;;-0.57;100.00
64053;BME280;50299;49.524;8.536;2023-03-03T06:11:16;100930.88;;;-0.53;100.00
64053;BME280;50299;49.524;8.536;2023-03-03T06:13:44;100926.91;;;-1.03;100.00
64053;BME280;50299;49.524;8.536;2023-03-03T06:16:10;100932.56;;;-1.16;100.00
64053;BME280;50299;49.524;8.536;2023-03-03T06:18:37;100940.03;;;-1.58;97.77
64053;BME280;50299;49.524;8.536;2023-03-03T06:21:03;100942.25;;;-2.02;93.52
64053;BME280;50299;49.524;8.536;2023-03-03T06:23:30;100943.63;;;-2.83;89.56
64053;BME280;50299;49.524;8.536;2023-03-03T06:25:57;100944.00;;;-3.35;89.34
64053;BME280;50299;49.524;8.536;2023-03-03T06:28:24;100949.97;;;-3.94;94.10
64053;BME280;50299;49.524;8.536;2023-03-03T06:30:54;100941.53;;;-3.36;96.35
64053;BME280;50299;49.524;8.536;2023-03-03T06:33:21;100949.78;;;-3.49;95.62
64053;BME280;50299;49.524;8.536;2023-03-03T06:35:50;100950.84;;;-3.32;95.95
64053;BME280;50299;49.524;8.536;2023-03-03T06:38:17;100949.84;;;-2.83;98.97
64053;BME280;50299;49.524;8.536;2023-03-03T06:40:45;100961.25;;;-2.62;97.76
64053;BME280;50299;49.524;8.536;2023-03-03T06:43:12;100960.44;;;-2.63;100.00
64053;BME280;50299;49.524;8.536;2023-03-03T06:45:39;100972.16;;;-2.69;97.50
64053;BME280;50299;49.524;8.536;2023-03-03T06:48:05;100979.38;;;-2.33;100.00
64053;BME280;50299;49.524;8.536;2023-03-03T06:50:32;100985.41;;;-2.31;100.00
64053;BME280;50299;49.524;8.536;2023-03-03T06:53:12;101004.25;;;-3.28;92.80
64053;BME280;50299;49.524;8.536;2023-03-03T06:55:40;100999.41;;;-3.94;92.43
64053;BME280;50299;49.524;8.536;2023-03-03T06:58:12;101001.72;;;-3.97;95.89
64053;BME280;50299;49.524;8.536;2023-03-03T07:00:43;101009.25;;;-3.74;97.82
64053;BME280;50299;49.524;8.536;2023-03-03T07:03:15;101002.63;;;-3.54;98.29
64053;BME280;50299;49.524;8.536;2023-03-03T07:05:43;101000.81;;;-3.16;97.31
64053;BME280;50299;49.524;8.536;2023-03-03T07:08:15;101013.28;;;-2.79;98.06
64053;BME280;50299;49.524;8.536;2023-03-03T07:10:43;101019.06;;;-2.57;98.13
64053;BME280;50299;49.524;8.536;2023-03-03T07:13:23;100998.41;;;-2.09;100.00
64053;BME280;50299;49.524;8.536;2023-03-03T07:15:51;100998.25;;;-1.49;100.00
64053;BME280;50299;49.524;8.536;2023-03-03T07:21:44;101009.97;;;-0.49;100.00
64053;BME280;50299;49.524;8.536;2023-03-03T07:24:21;101011.38;;;-0.47;100.00
64053;BME280;50299;49.524;8.536;2023-03-03T07:26:50;101014.28;;;-0.37;100.00
64053;BME280;50299;49.524;8.536;2023-03-03T07:29:23;101014.63;;;-0.05;100.00
64053;BME280;50299;49.524;8.536;2023-03-03T07:31:53;101016.31;;;-0.44;97.62
64053;BME280;50299;49.524;8.536;2023-03-03T07:34:24;101023.06;;;-0.87;93.83
64053;BME280;50299;49.524;8.536;2023-03-03T07:37:01;101017.19;;;-0.67;96.36
64053;BME280;50299;49.524;8.536;2023-03-03T07:39:33;101019.84;;;-0.43;97.79
64053;BME280;50299;49.524;8.536;2023-03-03T07:42:25;101037.63;;;-0.64;95.18
64053;BME280;50299;49.524;8.536;2023-03-03T07:44:57;101041.16;;;-1.81;89.33
64053;BME280;50299;49.524;8.536;2023-03-03T07:47:34;101040.03;;;-1.92;90.55
64053;BME280;50299;49.524;8.536;2023-03-03T07:50:17;101043.06;;;-1.46;95.75
64053;BME280;50299;49.524;8.536;2023-03-03T07:52:54;101033.44;;;-0.15;100.00
64053;BME280;50299;49.524;8.536;2023-03-03T07:55:38;101034.69;;;0.57;100.00
64053;BME280;50299;49.524;8.536;2023-03-03T08:01:35;101049.75;;;1.37;100.00
64053;BME280;50299;49.524;8.536;2023-03-03T08:04:18;101049.38;;;1.50;100.00
64053;BME280;50299;49.524;8.536;2023-03-03T08:06:50;101059.44;;;1.93;100.00
64053;BME280;50299;49.524;8.536;2023-03-03T08:11:48;101070.25;;;1.61;96.31
64053;BME280;50299;49.524;8.536;2023-03-03T08:14:19;101064.63;;;0.11;91.15
64053;BME280;50299;49.524;8.536;2023-03-03T08:16:50;101061.41;;;-0.03;92.76
64053;BME280;50299;49.524;8.536;2023-03-03T08:19:17;101074.56;;;-0.11;93.33
64053;BME280;50299;49.524;8.536;2023-03-03T08:21:43;101077.16;;;-0.05;95.52
64053;BME280;50299;49.524;8.536;2023-03-03T08:24:10;101068.47;;;-0.30;94.34
64053;BME280;50299;49.524;8.536;2023-03-03T08:26:36;101081.19;;;-1.30;90.54
64053;BME280;50299;49.524;8.536;2023-03-03T08:29:03;101074.84;;;-1.23;94.71
64053;BME280;50299;49.524;8.536;2023-03-03T08:31:30;101071.31;;;-0.89;98.11
64053;BME280;50299;49.524;8.536;2023-03-03T08:34:07;101069.09;;;-0.40;99.02
64053;BME280;50299;49.524;8.536;2023-03-03T08:36:36;101063.41;;;0.19;100.00
64053;BME280;50299;49.524;8.536;2023-03-03T08:39:03;101078.50;;;0.10;97.94
64053;BME280;50299;49.524;8.536;2023-03-03T08:41:30;101068.22;;;-0.57;94.84
64053;BME280;50299;49.524;8.536;2023-03-03T08:43:56;101072.34;;;-1.48;94.19
64053;BME280;50299;49.524;8.536;2023-03-03T08:46:26;101065.69;;;-0.47;100.00
64053;BME280;50299;49.524;8.536;2023-03-03T08:48:53;101064.41;;;-0.16;98.51
64053;BME280;50299;49.524;8.536;2023-03-03T08:51:20;101073.75;;;0.34;100.00
64053;BME280;50299;49.524;8.536;2023-03-03T08:53:48;101072.22;;;0.71;99.22
64053;BME280;50299;49.524;8.536;2023-03-03T08:56:14;101069.19;;;0.22;96.30
64053;BME280;50299;49.524;8.536;2023-03-03T08:58:41;101076.63;;;-0.70;90.23
64053;BME280;50299;49.524;8.536;2023-03-03T09:01:29;101078.97;;;-1.74;97.32
64053;BME280;50299;49.524;8.536;2023-03-03T09:03:56;101080.22;;;-1.47;98.01
64053;BME280;50299;49.524;8.536;2023-03-03T09:06:23;101090.38;;;-1.42;100.00
64053;BME280;50299;49.524;8.536;2023-03-03T09:08:49;101071.59;;;-0.10;100.00
64053;BME280;50299;49.524;8.536;2023-03-03T09:11:23;101074.22;;;0.14;100.00
64053;BME280;50299;49.524;8.536;2023-03-03T09:13:49;101089.38;;;0.10;97.38
64053;BME280;50299;49.524;8.536;2023-03-03T09:16:22;101076.06;;;0.25;96.82
64053;BME280;50299;49.524;8.536;2023-03-03T09:18:49;101083.59;;;-0.86;93.64
64053;BME280;50299;49.524;8.536;2023-03-03T09:21:24;101084.00;;;0.77;96.57
64053;BME280;50299;49.524;8.536;2023-03-03T09:23:58;101088.09;;;0.96;77.69
64053;BME280;50299;49.524;8.536;2023-03-03T09:26:29;101077.13;;;1.47;76.10
64053;BME280;50299;49.524;8.536;2023-03-03T09:31:45;101083.19;;;2.52;75.54
64053;BME280;50299;49.524;8.536;2023-03-03T09:34:44;101078.66;;;2.63;70.70
64053;BME280;50299;49.524;8.536;2023-03-03T09:37:36;101082.50;;;2.67;60.50
64053;BME280;50299;49.524;8.536;2023-03-03T09:40:32;101084.88;;;2.58;71.67
64053;BME280;50299;49.524;8.536;2023-03-03T09:43:14;101077.97;;;2.83;64.70
64053;BME280;50299;49.524;8.536;2023-03-03T09:46:30;101083.06;;;2.10;56.84
64053;BME280;50299;49.524;8.536;2023-03-03T09:52:31;101083.84;;;1.83;58.27
64053;BME280;50299;49.524;8.536;2023-03-03T09:55:08;101086.78;;;2.58;60.91
64053;BME280;50299;49.524;8.536;2023-03-03T10:00:15;101093.66;;;2.33;58.18
64053;BME280;50299;49.524;8.536;2023-03-03T10:03:07;101089.09;;;1.68;59.37
64053;BME280;50299;49.524;8.536;2023-03-03T10:05:46;101100.72;;;2.02;57.64
64053;BME280;50299;49.524;8.536;2023-03-03T10:19:38;101099.75;;;1.91;55.91
64053;BME280;50299;49.524;8.536;2023-03-03T10:22:19;101098.06;;;2.12;53.10
64053;BME280;50299;49.524;8.536;2023-03-03T10:27:52;101105.22;;;1.48;58.24
64053;BME280;50299;49.524;8.536;2023-03-03T10:30:44;101106.16;;;2.29;56.53
64053;BME280;50299;49.524;8.536;2023-03-03T10:33:41;101099.06;;;1.57;55.07
64053;BME280;50299;49.524;8.536;2023-03-03T10:41:51;101093.22;;;3.16;59.00
64053;BME280;50299;49.524;8.536;2023-03-03T10:55:05;101088.53;;;4.47;49.01
64053;BME280;50299;49.524;8.536;2023-03-03T11:00:14;101098.00;;;3.36;48.12
64053;BME280;50299;49.524;8.536;2023-03-03T11:05:54;101094.03;;;3.59;50.75
64053;BME280;50299;49.524;8.536;2023-03-03T11:08:45;101096.66;;;4.01;49.61
64053;BME280;50299;49.524;8.536;2023-03-03T11:11:22;101088.81;;;4.97;48.93
64053;BME280;50299;49.524;8.536;2023-03-03T11:13:56;101101.66;;;4.30;48.08
64053;BME280;50299;49.524;8.536;2023-03-03T11:25:00;101092.63;;;5.31;46.01
64053;BME280;50299;49.524;8.536;2023-03-03T11:30:54;101089.84;;;4.09;47.60
64053;BME280;50299;49.524;8.536;2023-03-03T11:33:39;101098.28;;;3.29;50.21
64053;BME280;50299;49.524;8.536;2023-03-03T11:36:20;101086.00;;;4.00;51.79
64053;BME280;50299;49.524;8.536;2023-03-03T11:38:59;101085.00;;;4.57;48.77
64053;BME280;50299;49.524;8.536;2023-03-03T11:44:19;101077.84;;;4.30;46.49
64053;BME280;50299;49.524;8.536;2023-03-03T11:47:02;101069.88;;;4.18;48.11
64053;BME280;50299;49.524;8.536;2023-03-03T11:49:43;101067.06;;;3.83;48.36
64053;BME280;50299;49.524;8.536;2023-03-03T11:57:53;101069.09;;;4.79;46.38
64053;BME280;50299;49.524;8.536;2023-03-03T12:03:24;101076.25;;;4.85;45.25
64053;BME280;50299;49.524;8.536;2023-03-03T12:12:22;101057.47;;;5.49;48.39
64053;BME280;50299;49.524;8.536;2023-03-03T12:17:50;101060.13;;;6.19;50.83
64053;BME280;50299;49.524;8.536;2023-03-03T12:20:36;101050.03;;;6.09;43.86
64053;BME280;50299;49.524;8.536;2023-03-03T12:25:53;101037.22;;;5.39;45.74
64053;BME280;50299;49.524;8.536;2023-03-03T12:28:25;101042.88;;;6.08;43.99
64053;BME280;50299;49.524;8.536;2023-03-03T12:31:18;101046.59;;;5.18;44.45
64053;BME280;50299;49.524;8.536;2023-03-03T12:34:07;101033.13;;;5.22;44.72
64053;BME280;50299;49.524;8.536;2023-03-03T12:40:18;101020.81;;;5.84;46.67
64053;BME280;50299;49.524;8.536;2023-03-03T12:48:45;101013.03;;;6.40;45.47
64053;BME280;50299;49.524;8.536;2023-03-03T13:00:13;101003.63;;;5.63;42.07
64053;BME280;50299;49.524;8.536;2023-03-03T13:03:04;101001.13;;;5.72;42.77
64053;BME280;50299;49.524;8.536;2023-03-03T13:08:56;101006.50;;;5.92;46.08
64053;BME280;50299;49.524;8.536;2023-03-03T13:17:08;101007.41;;;6.16;42.03
64053;BME280;50299;49.524;8.536;2023-03-03T13:19:58;100999.97;;;6.27;42.13
64053;BME280;50299;49.524;8.536;2023-03-03T13:22:41;100995.09;;;6.14;41.34
64053;BME280;50299;49.524;8.536;2023-03-03T13:25:47;100997.47;;;6.31;42.35
64053;BME280;50299;49.524;8.536;2023-03-03T13:30:49;100995.06;;;6.53;39.74
64053;BME280;50299;49.524;8.536;2023-03-03T13:33:29;100996.84;;;7.21;39.46
64053;BME280;50299;49.524;8.536;2023-03-03T13:36:03;100988.25;;;7.28;39.44
64053;BME280;50299;49.524;8.536;2023-03-03T13:38:46;100992.09;;;7.51;39.57
64053;BME280;50299;49.524;8.536;2023-03-03T13:41:23;100991.50;;;7.54;40.33
64053;BME280;50299;49.524;8.536;2023-03-03T13:44:16;100991.84;;;7.47;41.64
64053;BME280;50299;49.524;8.536;2023-03-03T13:47:22;100998.47;;;7.22;40.47
64053;BME280;50299;49.524;8.536;2023-03-03T13:50:02;100986.78;;;7.78;43.05
64053;BME280;50299;49.524;8.536;2023-03-03T13:52:59;100979.03;;;7.80;39.16
64053;BME280;50299;49.524;8.536;2023-03-03T13:55:59;100976.66;;;7.74;37.16
64053;BME280;50299;49.524;8.536;2023-03-03T14:01:36;100975.00;;;7.06;39.75
64053;BME280;50299;49.524;8.536;2023-03-03T14:04:26;100973.00;;;7.97;37.29
64053;BME280;50299;49.524;8.536;2023-03-03T14:07:10;100958.25;;;8.07;40.33
64053;BME280;50299;49.524;8.536;2023-03-03T14:10:28;100960.13;;;7.55;37.67
64053;BME280;50299;49.524;8.536;2023-03-03T14:13:07;100958.94;;;7.18;38.25
64053;BME280;50299;49.524;8.536;2023-03-03T14:15:43;100957.44;;;7.50;38.54
64053;BME280;50299;49.524;8.536;2023-03-03T14:18:38;100952.09;;;7.15;38.45
64053;BME280;50299;49.524;8.536;2023-03-03T14:21:18;100945.25;;;7.56;38.11
64053;BME280;50299;49.524;8.536;2023-03-03T14:24:15;100943.72;;;7.26;38.63
64053;BME280;50299;49.524;8.536;2023-03-03T14:26:58;100944.00;;;7.67;39.81
64053;BME280;50299;49.524;8.536;2023-03-03T14:29:41;100944.34;;;7.60;38.10
64053;BME280;50299;49.524;8.536;2023-03-03T14:32:27;100935.19;;;9.23;35.52
64053;BME280;50299;49.524;8.536;2023-03-03T14:35:29;100942.22;;;8.28;35.20
64053;BME280;50299;49.524;8.536;2023-03-03T14:38:23;100932.63;;;7.31;37.31
64053;BME280;50299;49.524;8.536;2023-03-03T14:49:46;100936.09;;;9.32;38.26
64053;BME280;50299;49.524;8.536;2023-03-03T14:54:59;100930.75;;;7.88;39.20
64053;BME280;50299;49.524;8.536;2023-03-03T14:57:51;100934.22;;;9.55;36.26
64053;BME280;50299;49.524;8.536;2023-03-03T15:01:05;100927.66;;;7.57;36.59
64053;BME280;50299;49.524;8.536;2023-03-03T15:03:57;100938.09;;;8.58;35.27
64053;BME280;50299;49.524;8.536;2023-03-03T15:06:41;100937.81;;;6.65;38.97
64053;BME280;50299;49.524;8.536;2023-03-03T15:09:35;100933.75;;;7.54;38.82
64053;BME280;50299;49.524;8.536;2023-03-03T15:15:19;100931.53;;;8.40;34.69
64053;BME280;50299;49.524;8.536;2023-03-03T15:24:06;100931.22;;;9.02;34.24
64053;BME280;50299;49.524;8.536;2023-03-03T15:26:59;100930.19;;;9.25;33.83
64053;BME280;50299;49.524;8.536;2023-03-03T15:33:28;100931.75;;;8.44;35.69
64053;BME280;50299;49.524;8.536;2023-03-03T15:36:38;100936.78;;;7.71;35.72
64053;BME280;50299;49.524;8.536;2023-03-03T15:42:26;100936.19;;;7.74;38.52
64053;BME280;50299;49.524;8.536;2023-03-03T15:45:32;100935.94;;;8.08;36.35
64053;BME280;50299;49.524;8.536;2023-03-03T15:54:14;100943.13;;;6.28;38.39
64053;BME280;50299;49.524;8.536;2023-03-03T15:56:55;100940.31;;;5.99;38.51
64053;BME280;50299;49.524;8.536;2023-03-03T16:07:01;100941.97;;;6.63;37.95
64053;BME280;50299;49.524;8.536;2023-03-03T16:19:35;100943.19;;;6.76;38.94
64053;BME280;50299;49.524;8.536;2023-03-03T16:25:48;100947.66;;;5.14;42.30